sensor_id;sensor_type;location;lat;lon;timestamp;temperature;humidity
67555;HTU21D;54385;53.516;49.456;2022-12-07T00:01:40;-10.27;70.34
67555;HTU21D;54385;53.516;49.456;2022-12-07T00:04:10;-10.14;70.00
67555;HTU21D;54385;53.516;49.456;2022-12-07T00:06:39;-10.03;69.55
67555;HTU21D;54385;53.516;49.456;2022-12-07T00:09:09;-10.16;69.47
67555;HTU21D;54385;53.516;49.456;2022-12-07T00:11:36;-10.26;69.52
67555;HTU21D;54385;53.516;49.456;2022-12-07T00:14:09;-10.26;69.75
67555;HTU21D;54385;53.516;49.456;2022-12-07T00:16:36;-10.29;69.55
67555;HTU21D;54385;53.516;49.456;2022-12-07T00:19:03;-10.23;69.41
67555;HTU21D;54385;53.516;49.456;2022-12-07T00:21:32;-10.23;69.44
67555;HTU21D;54385;53.516;49.456;2022-12-07T00:23:59;-10.20;68.98
67555;HTU21D;54385;53.516;49.456;2022-12-07T00:26:34;-10.19;69.16
67555;HTU21D;54385;53.516;49.456;2022-12-07T00:29:04;-10.25;69.22
67555;HTU21D;54385;53.516;49.456;2022-12-07T00:31:35;-10.25;69.36
67555;HTU21D;54385;53.516;49.456;2022-12-07T00:34:05;-10.33;69.16
67555;HTU21D;54385;53.516;49.456;2022-12-07T00:36:32;-10.43;69.40
67555;HTU21D;54385;53.516;49.456;2022-12-07T00:38:59;-10.44;69.53
67555;HTU21D;54385;53.516;49.456;2022-12-07T00:41:27;-10.36;69.80
67555;HTU21D;54385;53.516;49.456;2022-12-07T00:43:54;-10.31;69.35
67555;HTU21D;54385;53.516;49.456;2022-12-07T00:46:21;-10.49;69.18
67555;HTU21D;54385;53.516;49.456;2022-12-07T00:48:48;-10.56;69.53
67555;HTU21D;54385;53.516;49.456;2022-12-07T00:51:17;-10.44;69.41
67555;HTU21D;54385;53.516;49.456;2022-12-07T00:53:45;-10.37;69.15
67555;HTU21D;54385;53.516;49.456;2022-12-07T00:56:13;-10.43;69.23
67555;HTU21D;54385;53.516;49.456;2022-12-07T00:58:40;-10.64;69.26
67555;HTU21D;54385;53.516;49.456;2022-12-07T01:01:08;-10.70;69.99
67555;HTU21D;54385;53.516;49.456;2022-12-07T01:03:38;-10.60;70.03
67555;HTU21D;54385;53.516;49.456;2022-12-07T01:06:05;-10.53;69.49
67555;HTU21D;54385;53.516;49.456;2022-12-07T01:08:32;-10.62;69.71
67555;HTU21D;54385;53.516;49.456;2022-12-07T01:11:00;-10.60;69.95
67555;HTU21D;54385;53.516;49.456;2022-12-07T01:13:27;-10.46;69.72
67555;HTU21D;54385;53.516;49.456;2022-12-07T01:15:57;-10.40;69.28
67555;HTU21D;54385;53.516;49.456;2022-12-07T01:18:27;-10.32;69.16
67555;HTU21D;54385;53.516;49.456;2022-12-07T01:21:05;-10.31;68.67
67555;HTU21D;54385;53.516;49.456;2022-12-07T01:23:32;-10.26;69.08
67555;HTU21D;54385;53.516;49.456;2022-12-07T01:26:01;-10.38;68.76
67555;HTU21D;54385;53.516;49.456;2022-12-07T01:28:28;-10.37;68.89
67555;HTU21D;54385;53.516;49.456;2022-12-07T01:30:59;-10.48;69.42
67555;HTU21D;54385;53.516;49.456;2022-12-07T01:33:34;-10.46;69.27
67555;HTU21D;54385;53.516;49.456;2022-12-07T01:36:05;-10.47;69.20
67555;HTU21D;54385;53.516;49.456;2022-12-07T01:38:32;-10.43;69.23
67555;HTU21D;54385;53.516;49.456;2022-12-07T01:41:00;-10.47;69.34
67555;HTU21D;54385;53.516;49.456;2022-12-07T01:43:29;-10.43;69.49
67555;HTU21D;54385;53.516;49.456;2022-12-07T01:45:56;-10.43;69.27
67555;HTU21D;54385;53.516;49.456;2022-12-07T01:48:35;-10.59;69.55
67555;HTU21D;54385;53.516;49.456;2022-12-07T01:51:09;-10.46;69.84
67555;HTU21D;54385;53.516;49.456;2022-12-07T01:53:39;-10.50;69.53
67555;HTU21D;54385;53.516;49.456;2022-12-07T01:56:10;-10.73;69.35
67555;HTU21D;54385;53.516;49.456;2022-12-07T01:58:37;-10.89;70.03
67555;HTU21D;54385;53.516;49.456;2022-12-07T02:01:04;-10.90;70.42
67555;HTU21D;54385;53.516;49.456;2022-12-07T02:03:43;-10.99;70.26
67555;HTU21D;54385;53.516;49.456;2022-12-07T02:06:13;-11.04;70.28
67555;HTU21D;54385;53.516;49.456;2022-12-07T02:08:42;-11.10;70.34
67555;HTU21D;54385;53.516;49.456;2022-12-07T02:11:09;-11.27;70.48
67555;HTU21D;54385;53.516;49.456;2022-12-07T02:13:37;-11.24;71.13
67555;HTU21D;54385;53.516;49.456;2022-12-07T02:16:28;-11.29;71.35
67555;HTU21D;54385;53.516;49.456;2022-12-07T02:19:18;-11.14;70.96
67555;HTU21D;54385;53.516;49.456;2022-12-07T02:24:52;-11.07;70.77
67555;HTU21D;54385;53.516;49.456;2022-12-07T02:27:44;-10.90;70.80
67555;HTU21D;54385;53.516;49.456;2022-12-07T02:30:15;-10.85;70.35
67555;HTU21D;54385;53.516;49.456;2022-12-07T02:32:59;-10.86;70.02
67555;HTU21D;54385;53.516;49.456;2022-12-07T02:35:41;-10.97;70.28
67555;HTU21D;54385;53.516;49.456;2022-12-07T02:41:10;-11.19;70.95
67555;HTU21D;54385;53.516;49.456;2022-12-07T02:43:45;-11.18;71.56
67555;HTU21D;54385;53.516;49.456;2022-12-07T02:46:15;-11.20;71.31
67555;HTU21D;54385;53.516;49.456;2022-12-07T02:48:47;-11.19;71.49
67555;HTU21D;54385;53.516;49.456;2022-12-07T02:51:17;-11.12;71.57
67555;HTU21D;54385;53.516;49.456;2022-12-07T02:53:44;-11.14;71.19
67555;HTU21D;54385;53.516;49.456;2022-12-07T03:01:50;-10.99;70.99
67555;HTU21D;54385;53.516;49.456;2022-12-07T03:07:38;-10.86;70.99
67555;HTU21D;54385;53.516;49.456;2022-12-07T03:18:28;-10.79;70.71
67555;HTU21D;54385;53.516;49.456;2022-12-07T03:21:00;-10.61;70.82
67555;HTU21D;54385;53.516;49.456;2022-12-07T03:23:28;-10.74;70.16
67555;HTU21D;54385;53.516;49.456;2022-12-07T03:25:59;-10.88;70.18
67555;HTU21D;54385;53.516;49.456;2022-12-07T03:28:31;-10.99;69.94
67555;HTU21D;54385;53.516;49.456;2022-12-07T03:31:18;-10.99;70.41
67555;HTU21D;54385;53.516;49.456;2022-12-07T03:34:10;-11.12;70.19
67555;HTU21D;54385;53.516;49.456;2022-12-07T03:37:04;-11.19;70.79
67555;HTU21D;54385;53.516;49.456;2022-12-07T03:42:25;-11.30;70.99
67555;HTU21D;54385;53.516;49.456;2022-12-07T03:44:54;-11.40;70.82
67555;HTU21D;54385;53.516;49.456;2022-12-07T03:48:07;-11.50;71.05
67555;HTU21D;54385;53.516;49.456;2022-12-07T03:50:40;-11.47;70.88
67555;HTU21D;54385;53.516;49.456;2022-12-07T03:56:25;-11.49;70.70
67555;HTU21D;54385;53.516;49.456;2022-12-07T03:59:11;-11.46;70.70
67555;HTU21D;54385;53.516;49.456;2022-12-07T04:02:05;-11.53;70.65
67555;HTU21D;54385;53.516;49.456;2022-12-07T04:04:49;-11.61;70.79
67555;HTU21D;54385;53.516;49.456;2022-12-07T04:07:28;-11.62;70.61
67555;HTU21D;54385;53.516;49.456;2022-12-07T04:09:55;-11.62;70.31
67555;HTU21D;54385;53.516;49.456;2022-12-07T04:12:22;-11.60;70.65
67555;HTU21D;54385;53.516;49.456;2022-12-07T04:14:49;-11.68;70.70
67555;HTU21D;54385;53.516;49.456;2022-12-07T04:17:15;-11.56;70.70
67555;HTU21D;54385;53.516;49.456;2022-12-07T04:19:45;-11.59;70.42
67555;HTU21D;54385;53.516;49.456;2022-12-07T04:22:11;-11.66;70.41
67555;HTU21D;54385;53.516;49.456;2022-12-07T04:24:51;-11.66;70.80
67555;HTU21D;54385;53.516;49.456;2022-12-07T04:27:19;-11.75;70.64
67555;HTU21D;54385;53.516;49.456;2022-12-07T04:29:49;-11.75;70.96
67555;HTU21D;54385;53.516;49.456;2022-12-07T04:32:18;-11.75;70.65
67555;HTU21D;54385;53.516;49.456;2022-12-07T04:34:49;-11.82;70.55
67555;HTU21D;54385;53.516;49.456;2022-12-07T04:37:16;-11.91;70.70
67555;HTU21D;54385;53.516;49.456;2022-12-07T04:39:44;-11.94;71.03
67555;HTU21D;54385;53.516;49.456;2022-12-07T04:42:13;-11.95;70.97
67555;HTU21D;54385;53.516;49.456;2022-12-07T04:44:41;-11.90;70.89
67555;HTU21D;54385;53.516;49.456;2022-12-07T04:47:09;-11.85;70.76
67555;HTU21D;54385;53.516;49.456;2022-12-07T04:49:35;-11.85;70.93
67555;HTU21D;54385;53.516;49.456;2022-12-07T04:52:02;-11.64;70.71
67555;HTU21D;54385;53.516;49.456;2022-12-07T04:54:28;-11.61;70.24
67555;HTU21D;54385;53.516;49.456;2022-12-07T04:56:55;-11.53;70.42
67555;HTU21D;54385;53.516;49.456;2022-12-07T04:59:22;-11.44;69.97
67555;HTU21D;54385;53.516;49.456;2022-12-07T05:01:48;-11.34;69.54
67555;HTU21D;54385;53.516;49.456;2022-12-07T05:04:15;-11.27;69.08
67555;HTU21D;54385;53.516;49.456;2022-12-07T05:06:42;-11.16;69.10
67555;HTU21D;54385;53.516;49.456;2022-12-07T05:09:08;-11.12;68.62
67555;HTU21D;54385;53.516;49.456;2022-12-07T05:11:35;-11.25;68.13
67555;HTU21D;54385;53.516;49.456;2022-12-07T05:14:30;-11.47;68.93
67555;HTU21D;54385;53.516;49.456;2022-12-07T05:16:56;-11.54;69.30
67555;HTU21D;54385;53.516;49.456;2022-12-07T05:19:23;-11.56;69.31
67555;HTU21D;54385;53.516;49.456;2022-12-07T05:21:52;-11.65;69.82
67555;HTU21D;54385;53.516;49.456;2022-12-07T05:24:22;-11.68;69.84
67555;HTU21D;54385;53.516;49.456;2022-12-07T05:26:50;-11.68;70.12
67555;HTU21D;54385;53.516;49.456;2022-12-07T05:29:21;-11.52;70.03
67555;HTU21D;54385;53.516;49.456;2022-12-07T05:31:49;-11.40;69.55
67555;HTU21D;54385;53.516;49.456;2022-12-07T05:34:16;-11.23;69.57
67555;HTU21D;54385;53.516;49.456;2022-12-07T05:36:42;-11.23;69.07
67555;HTU21D;54385;53.516;49.456;2022-12-07T05:39:10;-11.23;68.75
67555;HTU21D;54385;53.516;49.456;2022-12-07T05:41:44;-11.05;68.78
67555;HTU21D;54385;53.516;49.456;2022-12-07T05:44:30;-11.00;68.71
67555;HTU21D;54385;53.516;49.456;2022-12-07T05:47:11;-10.91;68.20
67555;HTU21D;54385;53.516;49.456;2022-12-07T05:49:38;-11.06;68.07
67555;HTU21D;54385;53.516;49.456;2022-12-07T05:52:08;-11.23;68.47
67555;HTU21D;54385;53.516;49.456;2022-12-07T05:54:43;-11.10;69.33
67555;HTU21D;54385;53.516;49.456;2022-12-07T05:57:15;-11.16;68.91
67555;HTU21D;54385;53.516;49.456;2022-12-07T05:59:42;-11.24;69.04
67555;HTU21D;54385;53.516;49.456;2022-12-07T06:02:14;-11.16;68.78
67555;HTU21D;54385;53.516;49.456;2022-12-07T06:04:45;-11.26;68.91
67555;HTU21D;54385;53.516;49.456;2022-12-07T06:07:14;-11.11;69.27
67555;HTU21D;54385;53.516;49.456;2022-12-07T06:09:41;-11.18;68.57
67555;HTU21D;54385;53.516;49.456;2022-12-07T06:12:10;-11.03;68.79
67555;HTU21D;54385;53.516;49.456;2022-12-07T06:14:58;-10.91;68.14
67555;HTU21D;54385;53.516;49.456;2022-12-07T06:17:25;-10.95;68.12
67555;HTU21D;54385;53.516;49.456;2022-12-07T06:19:54;-10.85;67.85
67555;HTU21D;54385;53.516;49.456;2022-12-07T06:22:21;-10.82;67.25
67555;HTU21D;54385;53.516;49.456;2022-12-07T06:24:56;-10.68;66.85
67555;HTU21D;54385;53.516;49.456;2022-12-07T06:27:26;-10.80;66.58
67555;HTU21D;54385;53.516;49.456;2022-12-07T06:29:54;-11.19;67.19
67555;HTU21D;54385;53.516;49.456;2022-12-07T06:32:21;-11.09;68.26
67555;HTU21D;54385;53.516;49.456;2022-12-07T06:34:47;-10.92;67.85
67555;HTU21D;54385;53.516;49.456;2022-12-07T06:37:14;-10.90;67.62
67555;HTU21D;54385;53.516;49.456;2022-12-07T06:39:40;-10.79;67.07
67555;HTU21D;54385;53.516;49.456;2022-12-07T06:42:07;-10.62;67.41
67555;HTU21D;54385;53.516;49.456;2022-12-07T06:44:37;-10.76;67.01
67555;HTU21D;54385;53.516;49.456;2022-12-07T06:47:04;-10.66;66.78
67555;HTU21D;54385;53.516;49.456;2022-12-07T06:49:37;-10.77;66.56
67555;HTU21D;54385;53.516;49.456;2022-12-07T06:52:04;-10.86;67.10
67555;HTU21D;54385;53.516;49.456;2022-12-07T06:54:31;-10.79;67.30
67555;HTU21D;54385;53.516;49.456;2022-12-07T06:56:58;-10.78;66.99
67555;HTU21D;54385;53.516;49.456;2022-12-07T06:59:24;-10.60;67.09
67555;HTU21D;54385;53.516;49.456;2022-12-07T07:01:51;-10.42;67.03
67555;HTU21D;54385;53.516;49.456;2022-12-07T07:04:18;-10.31;65.96
67555;HTU21D;54385;53.516;49.456;2022-12-07T07:06:44;-10.07;65.98
67555;HTU21D;54385;53.516;49.456;2022-12-07T07:09:11;-10.00;65.53
67555;HTU21D;54385;53.516;49.456;2022-12-07T07:11:38;-9.88;65.30
67555;HTU21D;54385;53.516;49.456;2022-12-07T07:14:04;-9.90;64.73
67555;HTU21D;54385;53.516;49.456;2022-12-07T07:16:31;-9.79;65.29
67555;HTU21D;54385;53.516;49.456;2022-12-07T07:18:58;-9.62;65.08
67555;HTU21D;54385;53.516;49.456;2022-12-07T07:21:24;-9.54;64.75
67555;HTU21D;54385;53.516;49.456;2022-12-07T07:23:51;-9.43;64.32
67555;HTU21D;54385;53.516;49.456;2022-12-07T07:26:18;-9.38;64.33
67555;HTU21D;54385;53.516;49.456;2022-12-07T07:28:44;-9.28;64.50
67555;HTU21D;54385;53.516;49.456;2022-12-07T07:31:14;-9.25;63.53
67555;HTU21D;54385;53.516;49.456;2022-12-07T07:33:42;-9.29;63.54
67555;HTU21D;54385;53.516;49.456;2022-12-07T07:36:12;-9.41;63.85
67555;HTU21D;54385;53.516;49.456;2022-12-07T07:38:39;-9.42;64.10
67555;HTU21D;54385;53.516;49.456;2022-12-07T07:41:08;-9.41;63.87
67555;HTU21D;54385;53.516;49.456;2022-12-07T07:43:34;-9.32;64.59
67555;HTU21D;54385;53.516;49.456;2022-12-07T07:46:04;-9.12;64.24
67555;HTU21D;54385;53.516;49.456;2022-12-07T07:48:50;-9.26;63.72
67555;HTU21D;54385;53.516;49.456;2022-12-07T07:51:17;-9.24;63.85
67555;HTU21D;54385;53.516;49.456;2022-12-07T07:53:43;-9.24;63.21
67555;HTU21D;54385;53.516;49.456;2022-12-07T07:56:09;-9.32;63.19
67555;HTU21D;54385;53.516;49.456;2022-12-07T07:58:36;-9.43;63.68
67555;HTU21D;54385;53.516;49.456;2022-12-07T08:01:30;-9.55;63.95
67555;HTU21D;54385;53.516;49.456;2022-12-07T08:04:12;-9.62;63.93
67555;HTU21D;54385;53.516;49.456;2022-12-07T08:07:41;-9.56;63.45
67555;HTU21D;54385;53.516;49.456;2022-12-07T08:10:13;-9.70;63.14
67555;HTU21D;54385;53.516;49.456;2022-12-07T08:12:43;-9.59;63.84
67555;HTU21D;54385;53.516;49.456;2022-12-07T08:16:21;-9.73;63.71
67555;HTU21D;54385;53.516;49.456;2022-12-07T08:19:37;-9.59;64.48
67555;HTU21D;54385;53.516;49.456;2022-12-07T08:22:04;-9.52;63.60
67555;HTU21D;54385;53.516;49.456;2022-12-07T08:24:33;-9.48;63.23
67555;HTU21D;54385;53.516;49.456;2022-12-07T08:30:53;-9.14;63.04
67555;HTU21D;54385;53.516;49.456;2022-12-07T08:34:46;-9.32;61.21
67555;HTU21D;54385;53.516;49.456;2022-12-07T08:41:27;-8.99;62.30
67555;HTU21D;54385;53.516;49.456;2022-12-07T08:43:54;-8.80;61.41
67555;HTU21D;54385;53.516;49.456;2022-12-07T08:46:47;-8.59;61.89
67555;HTU21D;54385;53.516;49.456;2022-12-07T08:49:36;-8.48;60.68
67555;HTU21D;54385;53.516;49.456;2022-12-07T08:52:07;-8.44;61.09
67555;HTU21D;54385;53.516;49.456;2022-12-07T08:57:48;-8.54;59.86
67555;HTU21D;54385;53.516;49.456;2022-12-07T09:00:16;-8.56;60.48
67555;HTU21D;54385;53.516;49.456;2022-12-07T09:02:44;-8.53;60.64
67555;HTU21D;54385;53.516;49.456;2022-12-07T09:05:12;-8.55;60.52
67555;HTU21D;54385;53.516;49.456;2022-12-07T09:07:43;-8.68;61.06
67555;HTU21D;54385;53.516;49.456;2022-12-07T09:10:10;-8.54;60.80
67555;HTU21D;54385;53.516;49.456;2022-12-07T09:12:37;-8.49;61.22
67555;HTU21D;54385;53.516;49.456;2022-12-07T09:15:08;-8.45;60.86
67555;HTU21D;54385;53.516;49.456;2022-12-07T09:17:40;-8.38;60.46
67555;HTU21D;54385;53.516;49.456;2022-12-07T09:20:07;-8.28;60.24
67555;HTU21D;54385;53.516;49.456;2022-12-07T09:22:36;-8.41;61.32
67555;HTU21D;54385;53.516;49.456;2022-12-07T09:25:04;-8.34;60.44
67555;HTU21D;54385;53.516;49.456;2022-12-07T09:27:33;-8.44;60.20
67555;HTU21D;54385;53.516;49.456;2022-12-07T09:30:00;-8.64;60.35
67555;HTU21D;54385;53.516;49.456;2022-12-07T09:32:26;-8.55;59.99
67555;HTU21D;54385;53.516;49.456;2022-12-07T09:34:56;-8.48;59.80
67555;HTU21D;54385;53.516;49.456;2022-12-07T09:37:22;-8.43;60.22
67555;HTU21D;54385;53.516;49.456;2022-12-07T09:39:49;-8.36;59.89
67555;HTU21D;54385;53.516;49.456;2022-12-07T09:42:43;-8.35;59.57
67555;HTU21D;54385;53.516;49.456;2022-12-07T09:45:18;-8.46;59.19
67555;HTU21D;54385;53.516;49.456;2022-12-07T09:47:46;-8.40;58.91
67555;HTU21D;54385;53.516;49.456;2022-12-07T09:50:19;-8.25;58.96
67555;HTU21D;54385;53.516;49.456;2022-12-07T09:52:47;-8.35;58.57
67555;HTU21D;54385;53.516;49.456;2022-12-07T09:55:19;-8.24;58.56
67555;HTU21D;54385;53.516;49.456;2022-12-07T09:57:45;-8.09;58.65
67555;HTU21D;54385;53.516;49.456;2022-12-07T10:00:17;-7.81;57.95
67555;HTU21D;54385;53.516;49.456;2022-12-07T10:02:46;-8.14;56.70
67555;HTU21D;54385;53.516;49.456;2022-12-07T10:05:16;-8.41;57.16
67555;HTU21D;54385;53.516;49.456;2022-12-07T10:07:44;-8.48;58.07
67555;HTU21D;54385;53.516;49.456;2022-12-07T10:10:19;-8.55;58.58
67555;HTU21D;54385;53.516;49.456;2022-12-07T10:13:07;-8.71;59.07
67555;HTU21D;54385;53.516;49.456;2022-12-07T10:15:57;-8.87;59.24
67555;HTU21D;54385;53.516;49.456;2022-12-07T10:18:34;-8.99;59.61
67555;HTU21D;54385;53.516;49.456;2022-12-07T10:21:13;-8.90;60.39
67555;HTU21D;54385;53.516;49.456;2022-12-07T10:23:43;-9.03;59.39
67555;HTU21D;54385;53.516;49.456;2022-12-07T10:26:33;-9.00;60.29
67555;HTU21D;54385;53.516;49.456;2022-12-07T10:29:04;-9.22;60.09
67555;HTU21D;54385;53.516;49.456;2022-12-07T10:31:39;-9.24;60.63
67555;HTU21D;54385;53.516;49.456;2022-12-07T10:34:21;-9.24;60.12
67555;HTU21D;54385;53.516;49.456;2022-12-07T10:36:53;-9.16;60.16
67555;HTU21D;54385;53.516;49.456;2022-12-07T10:39:22;-8.96;60.25
67555;HTU21D;54385;53.516;49.456;2022-12-07T10:41:56;-8.83;59.56
67555;HTU21D;54385;53.516;49.456;2022-12-07T10:44:37;-8.71;60.08
67555;HTU21D;54385;53.516;49.456;2022-12-07T10:47:32;-8.27;60.01
67555;HTU21D;54385;53.516;49.456;2022-12-07T11:04:17;-7.64;56.93
67555;HTU21D;54385;53.516;49.456;2022-12-07T11:07:07;-7.71;57.21
67555;HTU21D;54385;53.516;49.456;2022-12-07T11:10:12;-7.92;57.50
67555;HTU21D;54385;53.516;49.456;2022-12-07T11:12:52;-7.76;58.29
67555;HTU21D;54385;53.516;49.456;2022-12-07T11:15:52;-7.79;57.64
67555;HTU21D;54385;53.516;49.456;2022-12-07T11:18:26;-7.85;57.69
67555;HTU21D;54385;53.516;49.456;2022-12-07T11:21:10;-7.99;58.37
67555;HTU21D;54385;53.516;49.456;2022-12-07T11:24:10;-8.13;58.03
67555;HTU21D;54385;53.516;49.456;2022-12-07T11:33:04;-8.26;59.32
67555;HTU21D;54385;53.516;49.456;2022-12-07T11:38:24;-8.75;59.61
67555;HTU21D;54385;53.516;49.456;2022-12-07T11:40:53;-8.69;60.52
67555;HTU21D;54385;53.516;49.456;2022-12-07T11:43:31;-8.58;60.47
67555;HTU21D;54385;53.516;49.456;2022-12-07T11:46:06;-8.75;59.90
67555;HTU21D;54385;53.516;49.456;2022-12-07T11:48:54;-8.74;61.02
67555;HTU21D;54385;53.516;49.456;2022-12-07T11:51:22;-8.73;60.90
67555;HTU21D;54385;53.516;49.456;2022-12-07T11:53:56;-8.70;61.02
67555;HTU21D;54385;53.516;49.456;2022-12-07T11:56:26;-8.90;60.26
67555;HTU21D;54385;53.516;49.456;2022-12-07T11:58:57;-8.99;60.94
67555;HTU21D;54385;53.516;49.456;2022-12-07T12:01:47;-9.18;60.67
67555;HTU21D;54385;53.516;49.456;2022-12-07T12:07:06;-9.37;60.99
67555;HTU21D;54385;53.516;49.456;2022-12-07T12:09:54;-9.38;62.17
67555;HTU21D;54385;53.516;49.456;2022-12-07T12:17:57;-9.37;61.67
67555;HTU21D;54385;53.516;49.456;2022-12-07T12:20:32;-9.51;61.42
67555;HTU21D;54385;53.516;49.456;2022-12-07T12:23:20;-9.61;61.83
67555;HTU21D;54385;53.516;49.456;2022-12-07T12:25:57;-9.64;62.44
67555;HTU21D;54385;53.516;49.456;2022-12-07T12:33:47;-9.57;61.69
67555;HTU21D;54385;53.516;49.456;2022-12-07T12:36:28;-9.58;62.39
67555;HTU21D;54385;53.516;49.456;2022-12-07T12:39:14;-9.51;62.22
67555;HTU21D;54385;53.516;49.456;2022-12-07T12:47:01;-9.52;62.29
67555;HTU21D;54385;53.516;49.456;2022-12-07T12:52:00;-9.56;61.78
67555;HTU21D;54385;53.516;49.456;2022-12-07T12:54:34;-9.74;61.63
67555;HTU21D;54385;53.516;49.456;2022-12-07T12:57:30;-9.76;62.08
67555;HTU21D;54385;53.516;49.456;2022-12-07T12:59:58;-9.87;62.21
67555;HTU21D;54385;53.516;49.456;2022-12-07T13:05:00;-9.75;62.82
67555;HTU21D;54385;53.516;49.456;2022-12-07T13:10:36;-9.78;62.94
67555;HTU21D;54385;53.516;49.456;2022-12-07T13:21:02;-9.85;62.35
67555;HTU21D;54385;53.516;49.456;2022-12-07T13:23:51;-9.81;62.50
67555;HTU21D;54385;53.516;49.456;2022-12-07T13:26:24;-9.84;62.68
67555;HTU21D;54385;53.516;49.456;2022-12-07T13:34:36;-10.19;62.74
67555;HTU21D;54385;53.516;49.456;2022-12-07T13:37:32;-10.32;63.80
67555;HTU21D;54385;53.516;49.456;2022-12-07T13:40:18;-10.17;63.82
67555;HTU21D;54385;53.516;49.456;2022-12-07T13:42:45;-10.14;63.76
67555;HTU21D;54385;53.516;49.456;2022-12-07T13:45:38;-10.12;63.71
67555;HTU21D;54385;53.516;49.456;2022-12-07T13:50:55;-10.01;63.49
67555;HTU21D;54385;53.516;49.456;2022-12-07T13:53:22;-10.02;63.24
67555;HTU21D;54385;53.516;49.456;2022-12-07T13:55:49;-10.02;63.26
67555;HTU21D;54385;53.516;49.456;2022-12-07T13:58:16;-10.08;63.08
67555;HTU21D;54385;53.516;49.456;2022-12-07T14:00:43;-10.11;63.08
67555;HTU21D;54385;53.516;49.456;2022-12-07T14:05:41;-10.16;63.61
67555;HTU21D;54385;53.516;49.456;2022-12-07T14:10:53;-10.17;63.52
67555;HTU21D;54385;53.516;49.456;2022-12-07T14:13:31;-10.12;63.44
67555;HTU21D;54385;53.516;49.456;2022-12-07T14:16:03;-10.12;63.42
67555;HTU21D;54385;53.516;49.456;2022-12-07T14:18:37;-10.05;63.27
67555;HTU21D;54385;53.516;49.456;2022-12-07T14:21:24;-10.00;63.33
67555;HTU21D;54385;53.516;49.456;2022-12-07T14:24:23;-10.04;63.11
67555;HTU21D;54385;53.516;49.456;2022-12-07T14:26:50;-10.13;63.19
67555;HTU21D;54385;53.516;49.456;2022-12-07T14:29:20;-10.18;63.33
67555;HTU21D;54385;53.516;49.456;2022-12-07T14:31:47;-10.22;63.13
67555;HTU21D;54385;53.516;49.456;2022-12-07T14:34:13;-10.35;63.33
67555;HTU21D;54385;53.516;49.456;2022-12-07T14:36:40;-10.48;63.61
67555;HTU21D;54385;53.516;49.456;2022-12-07T14:39:07;-10.59;63.87
67555;HTU21D;54385;53.516;49.456;2022-12-07T14:41:33;-10.81;64.28
67555;HTU21D;54385;53.516;49.456;2022-12-07T14:44:20;-10.92;65.37
67555;HTU21D;54385;53.516;49.456;2022-12-07T14:46:47;-10.82;65.01
67555;HTU21D;54385;53.516;49.456;2022-12-07T14:49:14;-10.66;64.94
67555;HTU21D;54385;53.516;49.456;2022-12-07T14:51:41;-10.66;64.54
67555;HTU21D;54385;53.516;49.456;2022-12-07T14:54:19;-10.80;64.53
67555;HTU21D;54385;53.516;49.456;2022-12-07T14:56:46;-11.03;64.98
67555;HTU21D;54385;53.516;49.456;2022-12-07T14:59:17;-11.19;65.59
67555;HTU21D;54385;53.516;49.456;2022-12-07T15:01:45;-11.39;66.27
67555;HTU21D;54385;53.516;49.456;2022-12-07T15:04:11;-11.42;66.40
67555;HTU21D;54385;53.516;49.456;2022-12-07T15:06:38;-11.58;66.83
67555;HTU21D;54385;53.516;49.456;2022-12-07T15:09:06;-11.64;67.22
67555;HTU21D;54385;53.516;49.456;2022-12-07T15:11:32;-11.58;67.51
67555;HTU21D;54385;53.516;49.456;2022-12-07T15:13:58;-11.54;67.38
67555;HTU21D;54385;53.516;49.456;2022-12-07T15:16:35;-11.63;67.23
67555;HTU21D;54385;53.516;49.456;2022-12-07T15:19:09;-11.59;67.59
67555;HTU21D;54385;53.516;49.456;2022-12-07T15:21:37;-11.56;67.58
67555;HTU21D;54385;53.516;49.456;2022-12-07T15:24:03;-11.49;66.99
67555;HTU21D;54385;53.516;49.456;2022-12-07T15:26:30;-11.63;66.95
67555;HTU21D;54385;53.516;49.456;2022-12-07T15:28:57;-11.65;67.10
67555;HTU21D;54385;53.516;49.456;2022-12-07T15:31:23;-11.56;67.39
67555;HTU21D;54385;53.516;49.456;2022-12-07T15:33:50;-11.47;66.94
67555;HTU21D;54385;53.516;49.456;2022-12-07T15:36:25;-11.51;67.00
67555;HTU21D;54385;53.516;49.456;2022-12-07T15:38:52;-11.50;66.73
67555;HTU21D;54385;53.516;49.456;2022-12-07T15:41:20;-11.52;66.61
67555;HTU21D;54385;53.516;49.456;2022-12-07T15:43:47;-11.50;66.65
67555;HTU21D;54385;53.516;49.456;2022-12-07T15:46:36;-11.54;66.39
67555;HTU21D;54385;53.516;49.456;2022-12-07T15:49:22;-11.54;66.66
67555;HTU21D;54385;53.516;49.456;2022-12-07T15:51:49;-11.60;66.41
67555;HTU21D;54385;53.516;49.456;2022-12-07T15:54:27;-11.71;66.85
67555;HTU21D;54385;53.516;49.456;2022-12-07T15:56:54;-11.68;66.92
67555;HTU21D;54385;53.516;49.456;2022-12-07T15:59:21;-11.70;66.93
67555;HTU21D;54385;53.516;49.456;2022-12-07T16:01:48;-11.70;67.20
67555;HTU21D;54385;53.516;49.456;2022-12-07T16:04:14;-11.82;67.01
67555;HTU21D;54385;53.516;49.456;2022-12-07T16:06:41;-11.79;67.49
67555;HTU21D;54385;53.516;49.456;2022-12-07T16:09:08;-11.79;67.14
67555;HTU21D;54385;53.516;49.456;2022-12-07T16:11:34;-11.71;67.17
67555;HTU21D;54385;53.516;49.456;2022-12-07T16:14:01;-11.67;66.79
67555;HTU21D;54385;53.516;49.456;2022-12-07T16:16:27;-11.69;66.52
67555;HTU21D;54385;53.516;49.456;2022-12-07T16:18:54;-11.70;66.46
67555;HTU21D;54385;53.516;49.456;2022-12-07T16:21:21;-11.73;66.43
67555;HTU21D;54385;53.516;49.456;2022-12-07T16:23:47;-11.68;66.40
67555;HTU21D;54385;53.516;49.456;2022-12-07T16:26:19;-11.67;66.25
67555;HTU21D;54385;53.516;49.456;2022-12-07T16:28:49;-11.69;66.20
67555;HTU21D;54385;53.516;49.456;2022-12-07T16:31:17;-11.76;66.26
67555;HTU21D;54385;53.516;49.456;2022-12-07T16:33:44;-11.69;66.25
67555;HTU21D;54385;53.516;49.456;2022-12-07T16:36:13;-11.68;66.21
67555;HTU21D;54385;53.516;49.456;2022-12-07T16:38:42;-11.58;65.75
67555;HTU21D;54385;53.516;49.456;2022-12-07T16:41:09;-11.48;65.54
67555;HTU21D;54385;53.516;49.456;2022-12-07T16:43:36;-11.48;65.37
67555;HTU21D;54385;53.516;49.456;2022-12-07T16:46:03;-11.41;65.09
67555;HTU21D;54385;53.516;49.456;2022-12-07T16:48:30;-11.41;64.83
67555;HTU21D;54385;53.516;49.456;2022-12-07T16:50:57;-11.36;64.88
67555;HTU21D;54385;53.516;49.456;2022-12-07T16:53:24;-11.45;64.57
67555;HTU21D;54385;53.516;49.456;2022-12-07T16:55:50;-11.50;64.76
67555;HTU21D;54385;53.516;49.456;2022-12-07T16:58:17;-11.58;64.69
67555;HTU21D;54385;53.516;49.456;2022-12-07T17:00:45;-11.59;64.93
67555;HTU21D;54385;53.516;49.456;2022-12-07T17:03:11;-11.65;65.57
67555;HTU21D;54385;53.516;49.456;2022-12-07T17:05:40;-11.53;65.16
67555;HTU21D;54385;53.516;49.456;2022-12-07T17:08:08;-11.51;65.27
67555;HTU21D;54385;53.516;49.456;2022-12-07T17:10:39;-11.55;64.79
67555;HTU21D;54385;53.516;49.456;2022-12-07T17:13:07;-11.70;65.01
67555;HTU21D;54385;53.516;49.456;2022-12-07T17:16:03;-11.92;65.89
67555;HTU21D;54385;53.516;49.456;2022-12-07T17:18:32;-12.10;66.29